sensor_id;sensor_type;location;lat;lon;timestamp;temperature;humidity
49821;DHT22;36893;52.520;13.450;2023-02-15T00:05:49;20.70;79.60
49821;DHT22;36893;52.520;13.450;2023-02-15T00:15:49;20.70;79.60
49821;DHT22;36893;52.520;13.450;2023-02-15T00:25:50;20.70;79.50
49821;DHT22;36893;52.520;13.450;2023-02-15T00:35:56;20.60;79.30
49821;DHT22;36893;52.520;13.450;2023-02-15T00:45:58;20.60;79.30
49821;DHT22;36893;52.520;13.450;2023-02-15T00:55:59;20.60;79.20
49821;DHT22;36893;52.520;13.450;2023-02-15T01:06:00;20.60;79.10
49821;DHT22;36893;52.520;13.450;2023-02-15T01:16:01;20.60;79.10
49821;DHT22;36893;52.520;13.450;2023-02-15T01:26:03;20.60;79.00
49821;DHT22;36893;52.520;13.450;2023-02-15T01:36:04;20.50;78.90
49821;DHT22;36893;52.520;13.450;2023-02-15T01:46:07;20.50;78.90
49821;DHT22;36893;52.520;13.450;2023-02-15T01:56:12;20.50;78.80
49821;DHT22;36893;52.520;13.450;2023-02-15T02:06:15;20.50;78.80
49821;DHT22;36893;52.520;13.450;2023-02-15T02:16:22;20.50;78.70
49821;DHT22;36893;52.520;13.450;2023-02-15T02:37:26;20.50;78.60
49821;DHT22;36893;52.520;13.450;2023-02-15T02:47:34;20.50;78.60
49821;DHT22;36893;52.520;13.450;2023-02-15T02:58:22;20.50;78.50
49821;DHT22;36893;52.520;13.450;2023-02-15T03:08:33;20.40;78.40
49821;DHT22;36893;52.520;13.450;2023-02-15T03:18:45;20.50;78.40
49821;DHT22;36893;52.520;13.450;2023-02-15T03:28:55;20.40;78.30
49821;DHT22;36893;52.520;13.450;2023-02-15T03:39:18;20.40;78.30
49821;DHT22;36893;52.520;13.450;2023-02-15T03:49:57;20.40;78.30
49821;DHT22;36893;52.520;13.450;2023-02-15T04:00:06;20.40;78.30
49821;DHT22;36893;52.520;13.450;2023-02-15T04:10:31;20.40;78.20
49821;DHT22;36893;52.520;13.450;2023-02-15T04:20:50;20.40;78.10
49821;DHT22;36893;52.520;13.450;2023-02-15T04:31:09;20.40;78.10
49821;DHT22;36893;52.520;13.450;2023-02-15T04:41:10;20.40;78.10
49821;DHT22;36893;52.520;13.450;2023-02-15T04:51:12;20.40;78.00
49821;DHT22;36893;52.520;13.450;2023-02-15T05:01:13;20.40;78.70
49821;DHT22;36893;52.520;13.450;2023-02-15T05:11:13;20.40;77.90
49821;DHT22;36893;52.520;13.450;2023-02-15T05:21:14;20.40;77.90
49821;DHT22;36893;52.520;13.450;2023-02-15T05:31:18;20.30;77.80
49821;DHT22;36893;52.520;13.450;2023-02-15T05:41:19;20.30;77.80
49821;DHT22;36893;52.520;13.450;2023-02-15T05:51:19;20.30;77.80
49821;DHT22;36893;52.520;13.450;2023-02-15T06:01:20;20.30;77.70
49821;DHT22;36893;52.520;13.450;2023-02-15T06:11:23;20.30;77.70
49821;DHT22;36893;52.520;13.450;2023-02-15T06:21:23;20.30;77.70
49821;DHT22;36893;52.520;13.450;2023-02-15T06:31:24;20.30;77.80
49821;DHT22;36893;52.520;13.450;2023-02-15T06:41:24;20.30;77.80
49821;DHT22;36893;52.520;13.450;2023-02-15T06:51:25;20.30;77.80
49821;DHT22;36893;52.520;13.450;2023-02-15T07:01:26;20.40;77.90
49821;DHT22;36893;52.520;13.450;2023-02-15T07:11:26;20.30;77.90
49821;DHT22;36893;52.520;13.450;2023-02-15T07:21:46;20.30;78.10
49821;DHT22;36893;52.520;13.450;2023-02-15T07:31:47;20.40;78.30
49821;DHT22;36893;52.520;13.450;2023-02-15T07:41:47;20.40;78.30
49821;DHT22;36893;52.520;13.450;2023-02-15T07:51:48;20.40;78.40
49821;DHT22;36893;52.520;13.450;2023-02-15T08:01:49;20.40;78.30
49821;DHT22;36893;52.520;13.450;2023-02-15T08:11:49;20.40;78.40
49821;DHT22;36893;52.520;13.450;2023-02-15T08:21:52;20.40;78.50
49821;DHT22;36893;52.520;13.450;2023-02-15T08:31:59;20.30;78.40
49821;DHT22;36893;52.520;13.450;2023-02-15T08:42:02;20.30;78.40
49821;DHT22;36893;52.520;13.450;2023-02-15T08:52:03;20.30;78.40
49821;DHT22;36893;52.520;13.450;2023-02-15T09:02:03;20.30;78.40
49821;DHT22;36893;52.520;13.450;2023-02-15T09:12:04;20.30;78.40
49821;DHT22;36893;52.520;13.450;2023-02-15T09:22:05;20.30;78.40
49821;DHT22;36893;52.520;13.450;2023-02-15T09:32:07;20.30;78.30
49821;DHT22;36893;52.520;13.450;2023-02-15T10:03:14;20.90;77.80
49821;DHT22;36893;52.520;13.450;2023-02-15T10:13:24;21.00;77.70
49821;DHT22;36893;52.520;13.450;2023-02-15T10:23:47;21.10;77.50
49821;DHT22;36893;52.520;13.450;2023-02-15T10:34:09;21.20;77.50
49821;DHT22;36893;52.520;13.450;2023-02-15T11:05:40;21.40;77.50
49821;DHT22;36893;52.520;13.450;2023-02-15T11:15:53;21.60;77.50
49821;DHT22;36893;52.520;13.450;2023-02-15T11:26:01;21.60;77.50
49821;DHT22;36893;52.520;13.450;2023-02-15T11:36:08;21.40;75.90
49821;DHT22;36893;52.520;13.450;2023-02-15T11:46:17;20.70;74.60
49821;DHT22;36893;52.520;13.450;2023-02-15T11:56:22;20.20;73.80
49821;DHT22;36893;52.520;13.450;2023-02-15T12:06:29;20.20;73.40
49821;DHT22;36893;52.520;13.450;2023-02-15T12:16:53;20.40;73.00
49821;DHT22;36893;52.520;13.450;2023-02-15T12:27:10;20.50;72.90
49821;DHT22;36893;52.520;13.450;2023-02-15T12:37:23;20.70;72.70
49821;DHT22;36893;52.520;13.450;2023-02-15T12:47:31;20.80;72.70
49821;DHT22;36893;52.520;13.450;2023-02-15T12:57:33;20.80;72.60
49821;DHT22;36893;52.520;13.450;2023-02-15T13:07:34;20.90;72.70
49821;DHT22;36893;52.520;13.450;2023-02-15T13:17:34;21.00;72.80
49821;DHT22;36893;52.520;13.450;2023-02-15T13:27:38;21.10;72.90
49821;DHT22;36893;52.520;13.450;2023-02-15T13:38:12;21.10;72.90
49821;DHT22;36893;52.520;13.450;2023-02-15T13:48:39;21.10;73.10
49821;DHT22;36893;52.520;13.450;2023-02-15T13:59:07;21.20;73.10
49821;DHT22;36893;52.520;13.450;2023-02-15T14:09:30;21.20;73.10
49821;DHT22;36893;52.520;13.450;2023-02-15T14:19:51;21.20;73.10
49821;DHT22;36893;52.520;13.450;2023-02-15T14:30:00;21.20;73.10
49821;DHT22;36893;52.520;13.450;2023-02-15T14:50:45;21.20;73.10
49821;DHT22;36893;52.520;13.450;2023-02-15T15:00:47;21.20;73.10
49821;DHT22;36893;52.520;13.450;2023-02-15T15:10:47;21.20;73.60
49821;DHT22;36893;52.520;13.450;2023-02-15T15:20:51;21.40;72.60
49821;DHT22;36893;52.520;13.450;2023-02-15T15:30:52;21.50;72.50
49821;DHT22;36893;52.520;13.450;2023-02-15T15:51:41;21.70;72.40
49821;DHT22;36893;52.520;13.450;2023-02-15T16:01:44;21.80;72.30
49821;DHT22;36893;52.520;13.450;2023-02-15T16:11:48;21.80;72.30
49821;DHT22;36893;52.520;13.450;2023-02-15T16:21:51;21.90;72.30
49821;DHT22;36893;52.520;13.450;2023-02-15T16:32:01;21.90;72.20
49821;DHT22;36893;52.520;13.450;2023-02-15T16:42:03;22.00;72.20
49821;DHT22;36893;52.520;13.450;2023-02-15T16:52:05;22.00;72.00
49821;DHT22;36893;52.520;13.450;2023-02-15T17:02:15;22.10;72.10
49821;DHT22;36893;52.520;13.450;2023-02-15T17:12:45;22.10;72.10
49821;DHT22;36893;52.520;13.450;2023-02-15T17:22:47;22.00;72.40
49821;DHT22;36893;52.520;13.450;2023-02-15T17:32:58;21.90;72.40
49821;DHT22;36893;52.520;13.450;2023-02-15T17:42:59;21.90;72.40
49821;DHT22;36893;52.520;13.450;2023-02-15T17:53:00;21.90;72.40
49821;DHT22;36893;52.520;13.450;2023-02-15T18:03:01;22.00;72.40
49821;DHT22;36893;52.520;13.450;2023-02-15T18:13:20;22.00;72.40
49821;DHT22;36893;52.520;13.450;2023-02-15T18:23:21;22.00;72.60
49821;DHT22;36893;52.520;13.450;2023-02-15T18:33:35;22.00;72.60
49821;DHT22;36893;52.520;13.450;2023-02-15T18:43:37;22.10;72.80
49821;DHT22;36893;52.520;13.450;2023-02-15T18:53:38;22.10;72.80
49821;DHT22;36893;52.520;13.450;2023-02-15T19:03:39;22.10;73.00
49821;DHT22;36893;52.520;13.450;2023-02-15T19:13:39;22.10;73.10
49821;DHT22;36893;52.520;13.450;2023-02-15T19:23:40;22.20;73.20
49821;DHT22;36893;52.520;13.450;2023-02-15T19:33:44;22.20;73.20
49821;DHT22;36893;52.520;13.450;2023-02-15T19:43:50;22.20;73.30
49821;DHT22;36893;52.520;13.450;2023-02-15T19:53:54;22.10;73.40
49821;DHT22;36893;52.520;13.450;2023-02-15T20:03:57;22.10;73.50
49821;DHT22;36893;52.520;13.450;2023-02-15T20:13:59;22.00;73.60
49821;DHT22;36893;52.520;13.450;2023-02-15T20:24:00;22.00;73.70
49821;DHT22;36893;52.520;13.450;2023-02-15T20:34:01;22.00;73.80
49821;DHT22;36893;52.520;13.450;2023-02-15T20:44:30;21.90;73.70
49821;DHT22;36893;52.520;13.450;2023-02-15T20:54:33;21.90;73.90
49821;DHT22;36893;52.520;13.450;2023-02-15T21:04:35;21.80;73.90
49821;DHT22;36893;52.520;13.450;2023-02-15T21:14:35;21.80;73.90
49821;DHT22;36893;52.520;13.450;2023-02-15T21:24:36;21.80;73.80
49821;DHT22;36893;52.520;13.450;2023-02-15T21:34:37;21.80;73.80
49821;DHT22;36893;52.520;13.450;2023-02-15T21:44:39;21.80;73.80
49821;DHT22;36893;52.520;13.450;2023-02-15T21:54:58;21.80;73.70
49821;DHT22;36893;52.520;13.450;2023-02-15T22:04:59;21.80;73.70
49821;DHT22;36893;52.520;13.450;2023-02-15T22:15:02;21.80;73.60
49821;DHT22;36893;52.520;13.450;2023-02-15T22:25:04;21.80;73.50
49821;DHT22;36893;52.520;13.450;2023-02-15T22:35:08;21.80;73.30
49821;DHT22;36893;52.520;13.450;2023-02-15T22:45:18;21.80;73.20
49821;DHT22;36893;52.520;13.450;2023-02-15T22:55:24;21.80;73.10
49821;DHT22;36893;52.520;13.450;2023-02-15T23:27:59;21.70;72.90
49821;DHT22;36893;52.520;13.450;2023-02-15T23:38:00;21.60;72.80
49821;DHT22;36893;52.520;13.450;2023-02-15T23:48:01;21.60;72.70
49821;DHT22;36893;52.520;13.450;2023-02-15T23:58:22;21.60;72.60
